Time;durP1;ratioP1;P1;durP2;ratioP2;P2;SDS_P1;SDS_P2;PMS_P1;PMS_P2;Temp;Humidity;BMP_temperature;BMP_pressure;BME280_temperature;BME280_humidity;BME280_pressure;Samples;Min_cycle;Max_cycle;Signal;HPM_P1;HPM_P2
2021/03/14 00:00:30;;;;;;;0.80;0.70;;;18.30;21.90;;;;;;5114261;28;20290;-55
2021/03/14 00:02:59;;;;;;;1.10;1.00;;;18.30;22.00;;;;;;5114613;28;20184;-55
2021/03/14 00:05:27;;;;;;;2.53;0.90;;;18.30;22.00;;;;;;5096333;28;20161;-56
2021/03/14 00:07:55;;;;;;;2.85;0.80;;;18.30;22.00;;;;;;5114638;28;20157;-56
2021/03/14 00:10:21;;;;;;;3.30;1.15;;;18.30;22.00;;;;;;5114275;28;20165;-56
2021/03/14 00:12:56;;;;;;;1.03;0.53;;;18.30;22.00;;;;;;5114524;28;20162;-56
2021/03/14 00:15:22;;;;;;;0.80;0.73;;;18.30;22.00;;;;;;5113858;28;20157;-56
2021/03/14 00:17:49;;;;;;;0.90;0.70;;;18.30;22.00;;;;;;5114469;28;20161;-55
2021/03/14 00:20:16;;;;;;;1.25;0.70;;;18.30;22.00;;;;;;5114225;28;20248;-56
2021/03/14 00:22:42;;;;;;;1.15;1.05;;;18.30;22.00;;;;;;5114212;28;20189;-55
2021/03/14 00:25:08;;;;;;;0.90;0.73;;;18.30;22.00;;;;;;5114286;28;20202;-54
2021/03/14 00:27:37;;;;;;;1.08;0.80;;;18.30;22.00;;;;;;5114414;28;20251;-54
2021/03/14 00:30:06;;;;;;;1.60;1.00;;;18.30;22.00;;;;;;5113319;28;20149;-54
2021/03/14 00:32:33;;;;;;;1.83;1.02;;;18.30;22.00;;;;;;5114246;28;20643;-55
2021/03/14 00:35:01;;;;;;;1.90;0.90;;;18.30;22.00;;;;;;5114078;28;20239;-55
2021/03/14 00:37:29;;;;;;;1.00;0.90;;;18.30;22.00;;;;;;5113981;28;20161;-55
2021/03/14 00:39:55;;;;;;;1.25;1.00;;;18.30;22.00;;;;;;5114076;28;20180;-55
2021/03/14 00:42:23;;;;;;;1.07;0.70;;;18.30;22.00;;;;;;5114091;28;20212;-55
2021/03/14 00:44:48;;;;;;;0.68;0.60;;;18.30;22.00;;;;;;5113426;28;20236;-54
2021/03/14 00:47:14;;;;;;;0.83;0.83;;;18.30;22.00;;;;;;5114144;28;20207;-54
2021/03/14 00:49:40;;;;;;;2.30;1.10;;;18.30;22.00;;;;;;5114062;28;20173;-55
2021/03/14 00:52:05;;;;;;;1.53;0.90;;;18.30;22.00;;;;;;5113885;28;20165;-54
2021/03/14 00:54:33;;;;;;;0.80;0.80;;;18.30;22.10;;;;;;5113930;28;20611;-54
2021/03/14 00:56:59;;;;;;;0.90;0.70;;;18.30;22.00;;;;;;5113983;28;20420;-54
2021/03/14 00:59:25;;;;;;;1.10;0.90;;;18.30;22.00;;;;;;5113438;28;20258;-54
2021/03/14 01:01:50;;;;;;;1.30;1.17;;;18.30;22.00;;;;;;5113803;28;20181;-55
2021/03/14 01:04:16;;;;;;;1.90;0.87;;;18.30;22.00;;;;;;5113784;28;20629;-54
2021/03/14 01:06:42;;;;;;;1.17;0.77;;;18.20;22.00;;;;;;5113806;28;20257;-55
2021/03/14 01:09:07;;;;;;;0.90;0.80;;;18.30;22.00;;;;;;5113775;28;20674;-55
2021/03/14 01:11:33;;;;;;;1.07;0.90;;;18.30;22.00;;;;;;5114228;28;20172;-55
2021/03/14 01:13:59;;;;;;;1.70;1.03;;;18.20;22.00;;;;;;5113338;28;20604;-55
2021/03/14 01:16:25;;;;;;;0.87;0.60;;;18.30;22.10;;;;;;5113977;28;20172;-55
2021/03/14 01:18:50;;;;;;;1.67;0.80;;;18.30;22.10;;;;;;5113620;28;20403;-55
2021/03/14 01:21:18;;;;;;;1.47;0.80;;;18.20;22.00;;;;;;5113619;28;20553;-54
2021/03/14 01:23:44;;;;;;;1.80;0.88;;;18.20;22.00;;;;;;5113724;28;20157;-54
2021/03/14 01:26:10;;;;;;;0.80;0.80;;;18.20;22.00;;;;;;5113986;28;20164;-54
2021/03/14 01:28:38;;;;;;;0.90;0.73;;;18.30;22.10;;;;;;5113724;28;20158;-54
2021/03/14 01:31:04;;;;;;;0.77;0.70;;;18.20;22.00;;;;;;5113159;28;20165;-54
2021/03/14 01:33:30;;;;;;;0.83;0.70;;;18.30;22.10;;;;;;5113758;28;20240;-54
2021/03/14 01:35:55;;;;;;;1.30;1.00;;;18.30;22.10;;;;;;5113401;28;20158;-54
2021/03/14 01:38:21;;;;;;;1.00;0.70;;;18.20;22.00;;;;;;5113560;28;20154;-55
2021/03/14 01:40:47;;;;;;;0.73;0.73;;;18.20;22.00;;;;;;5113529;28;20162;-54
2021/03/14 01:43:15;;;;;;;0.80;0.60;;;18.20;22.00;;;;;;5116829;28;20639;-54
2021/03/14 01:45:41;;;;;;;0.95;0.75;;;18.20;22.00;;;;;;5116776;28;20398;-54
2021/03/14 01:48:07;;;;;;;0.90;0.70;;;18.20;22.00;;;;;;5117277;28;20643;-55
2021/03/14 01:50:36;;;;;;;0.90;0.68;;;18.20;22.00;;;;;;5117271;28;20720;-55
2021/03/14 01:53:02;;;;;;;0.90;0.60;;;18.20;22.00;;;;;;5098874;28;20211;-54
2021/03/14 01:55:28;;;;;;;1.05;0.90;;;18.20;22.00;;;;;;5117013;28;20158;-54
2021/03/14 01:57:57;;;;;;;0.80;0.70;;;18.20;22.00;;;;;;5117167;28;20198;-55
2021/03/14 02:00:25;;;;;;;2.63;0.88;;;18.20;22.00;;;;;;5098340;28;20623;-55
2021/03/14 02:02:51;;;;;;;1.83;1.02;;;18.20;22.00;;;;;;5116768;28;20177;-54
2021/03/14 02:05:19;;;;;;;0.70;0.70;;;18.20;22.00;;;;;;5116628;28;20157;-57
2021/03/14 02:07:47;;;;;;;1.63;0.73;;;18.20;22.10;;;;;;5116923;28;20894;-55
2021/03/14 02:10:20;;;;;;;0.93;0.70;;;18.20;22.00;;;;;;5116607;28;20169;-55
2021/03/14 02:13:02;;;;;;;1.10;0.80;;;18.20;22.10;;;;;;5116867;28;20187;-55
2021/03/14 02:15:28;;;;;;;0.90;0.65;;;18.20;22.10;;;;;;5116337;28;20157;-55
2021/03/14 02:17:56;;;;;;;1.27;0.98;;;18.20;22.10;;;;;;5116590;28;20161;-54
2021/03/14 02:20:25;;;;;;;0.60;0.60;;;18.20;22.10;;;;;;5116522;28;20249;-54
2021/03/14 02:23:04;;;;;;;0.70;0.63;;;18.20;22.10;;;;;;5116498;28;20181;-54
2021/03/14 02:25:43;;;;;;;1.15;0.70;;;18.20;22.10;;;;;;5116442;28;20623;-54
2021/03/14 02:28:11;;;;;;;0.73;0.73;;;18.20;22.00;;;;;;5116415;28;20191;-54
2021/03/14 02:30:36;;;;;;;0.70;0.60;;;18.20;22.10;;;;;;5115865;28;20619;-54
2021/03/14 02:33:03;;;;;;;1.17;0.80;;;18.20;22.10;;;;;;5116231;28;20165;-55
2021/03/14 02:35:29;;;;;;;0.98;0.80;;;18.20;22.10;;;;;;5116467;28;20484;-55
2021/03/14 02:37:56;;;;;;;1.00;0.90;;;18.20;22.10;;;;;;5116393;28;20161;-54
2021/03/14 02:40:22;;;;;;;1.15;0.80;;;18.20;22.10;;;;;;5116081;28;20189;-55
2021/03/14 02:42:49;;;;;;;0.70;0.68;;;18.20;22.10;;;;;;5116001;28;20226;-54
2021/03/14 02:45:17;;;;;;;1.08;0.77;;;18.20;22.10;;;;;;5131459;27;20171;-55
2021/03/14 02:47:44;;;;;;;1.40;0.80;;;18.20;22.10;;;;;;5116276;28;20156;-54
2021/03/14 02:50:20;;;;;;;0.85;0.68;;;18.20;22.10;;;;;;5115900;28;20156;-55
2021/03/14 02:52:47;;;;;;;1.30;0.70;;;18.20;22.10;;;;;;5116089;28;20161;-54
2021/03/14 02:55:15;;;;;;;1.25;0.57;;;18.20;22.10;;;;;;5115462;28;20153;-54
2021/03/14 02:57:43;;;;;;;1.08;0.80;;;18.20;22.10;;;;;;5116000;28;20181;-55
2021/03/14 03:00:15;;;;;;;0.85;0.75;;;18.20;22.10;;;;;;5131252;27;20165;-54
2021/03/14 03:02:44;;;;;;;0.85;0.82;;;18.20;22.10;;;;;;5115905;28;20238;-55
2021/03/14 03:05:15;;;;;;;1.52;0.90;;;18.20;22.10;;;;;;5115678;28;20157;-55
2021/03/14 03:07:46;;;;;;;0.73;0.70;;;18.20;22.10;;;;;;5115767;28;20191;-55
2021/03/14 03:10:18;;;;;;;1.70;0.75;;;18.20;22.20;;;;;;5115525;28;20555;-54
2021/03/14 03:12:48;;;;;;;2.83;0.80;;;18.20;22.10;;;;;;5115605;28;20643;-56
2021/03/14 03:15:17;;;;;;;0.70;0.60;;;18.10;22.00;;;;;;5115058;28;20166;-54
2021/03/14 03:17:48;;;;;;;1.30;0.63;;;18.20;22.20;;;;;;5115475;28;20198;-55
2021/03/14 03:20:15;;;;;;;0.93;0.60;;;18.10;22.10;;;;;;5115316;28;20209;-56
2021/03/14 03:22:41;;;;;;;1.55;0.80;;;18.10;22.10;;;;;;5115237;28;20239;-55
2021/03/14 03:25:08;;;;;;;1.10;0.73;;;18.20;22.20;;;;;;5115551;28;20188;-54
2021/03/14 03:27:35;;;;;;;1.40;0.80;;;18.10;22.10;;;;;;5115325;28;20172;-54
2021/03/14 03:30:03;;;;;;;0.70;0.63;;;18.20;22.20;;;;;;5114488;28;20179;-54
2021/03/14 03:32:29;;;;;;;1.10;1.00;;;18.20;22.20;;;;;;5096899;28;20284;-54
2021/03/14 03:34:54;;;;;;;1.43;0.80;;;18.20;22.20;;;;;;5114896;28;20197;-55
2021/03/14 03:37:21;;;;;;;0.77;0.67;;;18.20;22.20;;;;;;5115251;28;20248;-55
2021/03/14 03:39:46;;;;;;;2.35;0.88;;;18.20;22.20;;;;;;5114906;28;20172;-54
2021/03/14 03:42:18;;;;;;;0.70;0.70;;;18.10;22.10;;;;;;5115093;28;20193;-54
2021/03/14 03:44:47;;;;;;;1.75;1.27;;;18.20;22.20;;;;;;5114492;28;20497;-55
2021/03/14 03:47:20;;;;;;;0.82;0.73;;;18.10;22.10;;;;;;5114805;28;20161;-55
2021/03/14 03:49:49;;;;;;;1.75;1.00;;;18.20;22.20;;;;;;5114753;28;20145;-55
2021/03/14 03:52:20;;;;;;;0.80;0.68;;;18.10;22.10;;;;;;5096587;28;20181;-55
2021/03/14 03:54:51;;;;;;;0.82;0.75;;;18.20;22.20;;;;;;5096486;28;20623;-55
2021/03/14 03:57:19;;;;;;;0.80;0.75;;;18.10;22.10;;;;;;5114877;28;20667;-55
2021/03/14 03:59:47;;;;;;;0.95;0.80;;;18.10;22.10;;;;;;5114000;28;20176;-55
2021/03/14 04:02:18;;;;;;;1.20;0.70;;;18.10;22.10;;;;;;5114807;28;20615;-55
2021/03/14 04:04:45;;;;;;;0.95;0.70;;;18.10;22.10;;;;;;5114086;28;20248;-55
2021/03/14 04:07:12;;;;;;;0.68;0.68;;;18.10;22.10;;;;;;5114269;28;20165;-55
2021/03/14 04:09:43;;;;;;;2.08;0.80;;;18.10;22.20;;;;;;5114410;28;20204;-55
2021/03/14 04:12:09;;;;;;;0.68;0.50;;;18.10;22.10;;;;;;5114528;28;20163;-54
2021/03/14 04:14:35;;;;;;;0.80;0.50;;;18.10;22.10;;;;;;5113892;28;20256;-55
2021/03/14 04:17:03;;;;;;;0.95;0.68;;;18.10;22.20;;;;;;5114523;28;20312;-55
2021/03/14 04:19:33;;;;;;;0.70;0.50;;;18.10;22.10;;;;;;5114240;28;20157;-55
2021/03/14 04:22:00;;;;;;;1.00;0.60;;;18.10;22.10;;;;;;5114240;28;20211;-55
2021/03/14 04:24:28;;;;;;;0.70;0.55;;;18.10;22.10;;;;;;5114249;28;20504;-55
2021/03/14 04:26:58;;;;;;;0.50;0.40;;;18.10;22.70;;;;;;5114347;28;20185;-55
2021/03/14 04:29:27;;;;;;;0.80;0.60;;;18.10;22.10;;;;;;5113804;28;20149;-55
2021/03/14 04:31:53;;;;;;;1.45;0.70;;;18.10;22.10;;;;;;5114611;28;20161;-55
2021/03/14 04:34:21;;;;;;;0.80;0.60;;;18.10;22.20;;;;;;5129941;27;20173;-54
2021/03/14 04:36:48;;;;;;;1.83;0.82;;;18.10;22.20;;;;;;5114102;28;20405;-55
2021/03/14 04:39:14;;;;;;;0.70;0.70;;;18.10;22.10;;;;;;5114499;28;20228;-55
2021/03/14 04:41:45;;;;;;;0.80;0.70;;;18.10;22.20;;;;;;5114180;28;20220;-55
2021/03/14 04:44:12;;;;;;;0.88;0.60;;;18.10;22.10;;;;;;5113712;28;20168;-54
2021/03/14 04:46:38;;;;;;;0.75;0.65;;;18.10;22.10;;;;;;5114086;28;20194;-55
2021/03/14 04:49:25;;;;;;;1.53;0.80;;;18.10;22.10;;;;;;5113867;28;20161;-55
2021/03/14 04:51:51;;;;;;;1.00;0.60;;;18.10;22.10;;;;;;5113502;28;20451;-55
2021/03/14 04:54:17;;;;;;;0.70;0.52;;;18.10;22.10;;;;;;5113993;28;20154;-55
2021/03/14 04:56:47;;;;;;;0.77;0.60;;;18.10;22.10;;;;;;5114069;28;20237;-55
2021/03/14 04:59:17;;;;;;;0.75;0.65;;;18.10;22.10;;;;;;5129312;28;20577;-55
2021/03/14 05:01:45;;;;;;;1.30;0.90;;;18.10;22.10;;;;;;5113810;28;20184;-54
2021/03/14 05:04:13;;;;;;;0.93;0.65;;;18.10;22.20;;;;;;5113862;28;20184;-54
2021/03/14 05:06:44;;;;;;;0.80;0.60;;;19.30;23.00;;;;;;5114001;28;20149;-55
2021/03/14 05:09:13;;;;;;;1.35;0.77;;;18.10;22.20;;;;;;5113702;28;20177;-54
2021/03/14 05:11:48;;;;;;;1.33;0.75;;;18.10;22.20;;;;;;5113887;28;20193;-55
2021/03/14 05:14:20;;;;;;;1.35;0.68;;;18.10;22.20;;;;;;5113222;28;20571;-55
2021/03/14 05:16:46;;;;;;;0.70;0.60;;;18.10;22.10;;;;;;5114920;28;20157;-55
2021/03/14 05:19:14;;;;;;;1.07;0.90;;;18.10;22.20;;;;;;5117726;28;20629;-55
2021/03/14 05:21:42;;;;;;;1.00;0.80;;;18.10;22.20;;;;;;5117655;28;20239;-55
2021/03/14 05:24:11;;;;;;;1.10;0.75;;;18.10;22.20;;;;;;5117662;28;20157;-55
2021/03/14 05:26:44;;;;;;;0.70;0.60;;;18.00;22.10;;;;;;5117627;28;20186;-55
2021/03/14 05:29:11;;;;;;;1.52;0.60;;;18.00;22.10;;;;;;5117175;28;20149;-55
2021/03/14 05:31:38;;;;;;;0.90;0.77;;;18.10;22.20;;;;;;5117751;28;20202;-55
2021/03/14 05:34:12;;;;;;;0.80;0.65;;;18.10;22.20;;;;;;5117284;28;20157;-55
2021/03/14 05:36:38;;;;;;;0.70;0.60;;;18.10;22.20;;;;;;5117400;28;20228;-55
2021/03/14 05:39:05;;;;;;;0.80;0.60;;;18.10;22.20;;;;;;5117168;28;20288;-55
2021/03/14 05:41:33;;;;;;;0.70;0.60;;;18.00;22.10;;;;;;5098994;28;20543;-55
2021/03/14 05:44:03;;;;;;;0.60;0.50;;;18.10;22.20;;;;;;5116639;28;20222;-55
2021/03/14 05:46:31;;;;;;;0.70;0.60;;;18.10;22.20;;;;;;5117185;28;20154;-54
2021/03/14 05:48:57;;;;;;;0.90;0.65;;;18.10;22.20;;;;;;5117103;28;20177;-55
2021/03/14 05:51:31;;;;;;;0.87;0.60;;;18.10;22.20;;;;;;5117197;28;20158;-54
2021/03/14 05:54:00;;;;;;;0.80;0.70;;;18.00;22.10;;;;;;5116972;28;20370;-55
2021/03/14 05:56:28;;;;;;;0.85;0.55;;;18.10;22.20;;;;;;5117176;28;20248;-55
2021/03/14 05:58:54;;;;;;;1.50;0.70;;;18.10;22.20;;;;;;5116410;28;20237;-55
2021/03/14 06:01:25;;;;;;;1.45;0.75;;;18.10;22.20;;;;;;5116846;28;20177;-54
2021/03/14 06:03:53;;;;;;;0.70;0.60;;;18.00;22.20;;;;;;5116755;28;20172;-56
2021/03/14 06:06:19;;;;;;;0.75;0.57;;;18.00;22.10;;;;;;5116863;28;20149;-55
2021/03/14 06:08:47;;;;;;;0.70;0.60;;;18.00;22.10;;;;;;5117007;28;20215;-55
2021/03/14 06:11:16;;;;;;;0.70;0.52;;;18.00;22.10;;;;;;5116836;28;20149;-55
2021/03/14 06:13:45;;;;;;;1.00;0.70;;;18.00;22.10;;;;;;5116634;28;20149;-55
2021/03/14 06:16:11;;;;;;;1.50;0.60;;;18.00;22.10;;;;;;5116226;28;20605;-56
2021/03/14 06:18:38;;;;;;;0.80;0.60;;;18.00;22.20;;;;;;5116657;28;20157;-55
2021/03/14 06:21:19;;;;;;;0.93;0.77;;;18.00;22.20;;;;;;5116511;28;20458;-55
2021/03/14 06:24:01;;;;;;;2.03;0.70;;;18.00;22.20;;;;;;5116497;28;20200;-55
2021/03/14 06:26:35;;;;;;;0.60;0.50;;;18.00;22.10;;;;;;5116534;28;20154;-54
2021/03/14 06:29:22;;;;;;;0.80;0.80;;;18.00;22.10;;;;;;5114966;28;20180;-55
2021/03/14 06:31:59;;;;;;;0.70;0.60;;;18.00;22.20;;;;;;5116527;28;20156;-54
2021/03/14 06:34:35;;;;;;;0.70;0.50;;;18.00;22.20;;;;;;5116302;28;20153;-55
2021/03/14 06:37:09;;;;;;;0.60;0.50;;;18.00;22.10;;;;;;5116237;28;20153;-55
2021/03/14 06:39:37;;;;;;;0.90;0.57;;;18.00;22.10;;;;;;5116448;28;20472;-55
2021/03/14 06:42:03;;;;;;;1.10;0.60;;;18.00;22.10;;;;;;5116304;28;20184;-55
2021/03/14 06:44:31;;;;;;;0.65;0.50;;;18.00;22.20;;;;;;5115713;28;20161;-55
2021/03/14 06:47:01;;;;;;;1.02;0.75;;;18.00;22.20;;;;;;5116162;28;20236;-55
2021/03/14 06:49:28;;;;;;;1.60;0.70;;;18.00;22.10;;;;;;5116022;28;20145;-54
2021/03/14 06:51:55;;;;;;;0.73;0.60;;;18.00;22.10;;;;;;5097943;28;20188;-55
2021/03/14 06:54:20;;;;;;;1.20;1.10;;;18.00;22.10;;;;;;5115796;28;20244;-55
2021/03/14 06:57:11;;;;;;;0.70;0.60;;;18.00;22.10;;;;;;5115846;28;20232;-55
2021/03/14 06:59:45;;;;;;;1.20;1.00;;;18.00;22.10;;;;;;5115299;28;20149;-55
2021/03/14 07:02:12;;;;;;;1.20;0.60;;;18.00;22.10;;;;;;5115895;28;20249;-55
2021/03/14 07:04:55;;;;;;;0.82;0.60;;;18.00;22.20;;;;;;5115645;28;20244;-55
2021/03/14 07:07:29;;;;;;;1.67;0.90;;;18.00;22.10;;;;;;5115908;28;20153;-55
2021/03/14 07:09:59;;;;;;;0.93;0.75;;;18.00;22.10;;;;;;5115408;28;20172;-55
2021/03/14 07:12:33;;;;;;;0.65;0.60;;;18.10;22.20;;;;;;5115794;28;20246;-55
2021/03/14 07:15:20;;;;;;;0.68;0.60;;;18.00;22.10;;;;;;5115047;28;20215;-55
2021/03/14 07:18:03;;;;;;;1.55;0.60;;;18.10;22.10;;;;;;5115468;28;20256;-55
2021/03/14 07:20:31;;;;;;;0.80;0.60;;;18.10;22.10;;;;;;5115246;28;20223;-55
2021/03/14 07:23:08;;;;;;;0.98;0.63;;;18.10;22.10;;;;;;5115084;28;20185;-54
2021/03/14 07:25:45;;;;;;;0.85;0.75;;;18.10;22.10;;;;;;5115295;28;20274;-54
2021/03/14 07:28:12;;;;;;;0.80;0.70;;;18.10;22.10;;;;;;5115712;28;20153;-55
2021/03/14 07:30:38;;;;;;;0.73;0.60;;;18.00;22.00;;;;;;5114833;28;20232;-55
2021/03/14 07:33:05;;;;;;;1.40;0.83;;;18.10;22.00;;;;;;5115157;28;20271;-55
2021/03/14 07:35:31;;;;;;;0.70;0.60;;;18.10;22.00;;;;;;5115201;28;20407;-55
2021/03/14 07:37:57;;;;;;;0.60;0.40;;;18.10;22.00;;;;;;5115043;28;20520;-54
2021/03/14 07:40:25;;;;;;;0.93;0.65;;;18.10;22.00;;;;;;5114945;28;20163;-54
2021/03/14 07:42:55;;;;;;;0.98;0.70;;;18.10;22.00;;;;;;5115111;28;20272;-54
2021/03/14 07:45:22;;;;;;;0.70;0.60;;;18.10;21.90;;;;;;5114721;28;20162;-54
2021/03/14 07:47:48;;;;;;;0.73;0.65;;;18.10;21.90;;;;;;5096767;28;20153;-54
2021/03/14 07:50:22;;;;;;;0.60;0.55;;;18.20;22.00;;;;;;5114881;28;20163;-54
2021/03/14 07:52:51;;;;;;;0.85;0.80;;;18.20;22.00;;;;;;5114703;28;20152;-54
2021/03/14 07:55:23;;;;;;;1.00;0.75;;;18.10;21.90;;;;;;5130507;27;20206;-55
2021/03/14 07:57:53;;;;;;;0.60;0.50;;;18.10;21.90;;;;;;5114833;28;20153;-55
2021/03/14 08:00:29;;;;;;;0.70;0.50;;;18.10;21.90;;;;;;5114122;28;20145;-55
2021/03/14 08:02:57;;;;;;;0.85;0.60;;;18.10;21.90;;;;;;5114567;28;20188;-55
2021/03/14 08:05:45;;;;;;;1.15;0.50;;;18.10;21.90;;;;;;5114467;28;20624;-55
2021/03/14 08:08:23;;;;;;;0.82;0.65;;;18.10;21.90;;;;;;5114287;28;20150;-55
2021/03/14 08:10:49;;;;;;;0.95;0.77;;;18.20;22.00;;;;;;5114030;28;20160;-54
2021/03/14 08:13:30;;;;;;;0.80;0.60;;;18.10;21.90;;;;;;5114521;28;20165;-56
2021/03/14 08:16:05;;;;;;;0.70;0.65;;;18.20;22.00;;;;;;5113721;28;20665;-56
2021/03/14 08:18:39;;;;;;;0.90;0.70;;;18.10;21.90;;;;;;5114449;28;20195;-55
2021/03/14 08:21:06;;;;;;;0.70;0.60;;;18.20;21.90;;;;;;5114159;28;20225;-54
2021/03/14 08:23:43;;;;;;;1.08;0.98;;;18.10;21.90;;;;;;5114388;28;20265;-55
2021/03/14 08:26:27;;;;;;;1.35;0.50;;;18.20;21.90;;;;;;5114247;28;20237;-55
2021/03/14 08:29:03;;;;;;;1.10;0.60;;;18.20;21.90;;;;;;5113809;28;20232;-55
2021/03/14 08:31:46;;;;;;;0.73;0.60;;;18.10;21.80;;;;;;5114439;28;20172;-55
2021/03/14 08:34:16;;;;;;;2.15;0.90;;;18.20;21.90;;;;;;5114177;28;20544;-55
2021/03/14 08:36:42;;;;;;;0.90;0.80;;;18.20;21.90;;;;;;5114025;28;20145;-55
2021/03/14 08:39:30;;;;;;;0.60;0.50;;;18.20;21.90;;;;;;5114088;28;20157;-56
2021/03/14 08:42:00;;;;;;;0.98;0.52;;;18.20;21.80;;;;;;5114208;28;20287;-54
2021/03/14 08:44:45;;;;;;;0.70;0.50;;;18.20;21.70;;;;;;5113706;28;20146;-55
2021/03/14 08:47:15;;;;;;;0.82;0.82;;;18.20;21.70;;;;;;5114092;28;20224;-55
2021/03/14 08:49:55;;;;;;;0.63;0.55;;;18.20;21.70;;;;;;5113904;28;20240;-54
2021/03/14 08:52:21;;;;;;;1.05;0.80;;;18.20;21.60;;;;;;5132056;27;20171;-55
2021/03/14 08:54:51;;;;;;;1.15;0.60;;;18.30;21.70;;;;;;5118230;28;20248;-55
2021/03/14 08:57:18;;;;;;;1.80;0.63;;;18.30;21.70;;;;;;5118174;28;20153;-55
2021/03/14 08:59:56;;;;;;;0.90;0.70;;;18.30;21.70;;;;;;5117708;28;20216;-55
2021/03/14 09:02:25;;;;;;;0.80;0.60;;;18.30;21.60;;;;;;5118216;28;20177;-55
2021/03/14 09:04:51;;;;;;;0.90;0.60;;;18.30;21.60;;;;;;5117928;28;20145;-54
2021/03/14 09:07:18;;;;;;;0.73;0.60;;;18.30;21.60;;;;;;5118126;28;20153;-55
2021/03/14 09:09:43;;;;;;;0.80;0.50;;;18.30;21.60;;;;;;5117731;28;20261;-55
2021/03/14 09:12:19;;;;;;;0.70;0.50;;;18.30;21.60;;;;;;5117940;28;20161;-55
2021/03/14 09:14:47;;;;;;;0.75;0.50;;;18.30;21.60;;;;;;5117431;28;20160;-54
2021/03/14 09:17:20;;;;;;;0.73;0.60;;;18.40;21.60;;;;;;5117982;28;20194;-54
2021/03/14 09:19:49;;;;;;;0.57;0.43;;;18.30;21.50;;;;;;5117605;28;20556;-54
2021/03/14 09:22:19;;;;;;;0.70;0.50;;;18.30;21.50;;;;;;5117695;28;20216;-54
2021/03/14 09:25:01;;;;;;;0.98;0.63;;;18.40;21.70;;;;;;5117577;28;20149;-56
2021/03/14 09:27:38;;;;;;;0.88;0.88;;;18.40;21.60;;;;;;5117804;28;20232;-54
2021/03/14 09:30:19;;;;;;;0.70;0.60;;;18.50;21.60;;;;;;5117001;28;20156;-55
2021/03/14 09:32:50;;;;;;;0.70;0.70;;;18.60;21.60;;;;;;5117652;28;20239;-54
2021/03/14 09:35:30;;;;;;;0.70;0.50;;;18.70;21.40;;;;;;5117545;28;20160;-55
2021/03/14 09:37:56;;;;;;;0.68;0.50;;;18.80;21.10;;;;;;5117545;28;20157;-54
2021/03/14 09:40:26;;;;;;;0.60;0.50;;;18.80;20.80;;;;;;5117498;28;20552;-55
2021/03/14 09:43:03;;;;;;;0.80;0.70;;;18.90;21.10;;;;;;5117359;28;20209;-53
2021/03/14 09:45:30;;;;;;;0.80;0.75;;;18.90;21.00;;;;;;5116827;28;20153;-54
2021/03/14 09:48:17;;;;;;;0.80;0.60;;;19.00;20.80;;;;;;5117216;28;20576;-53
2021/03/14 09:50:47;;;;;;;1.45;0.75;;;19.00;20.60;;;;;;5098656;28;20165;-54
2021/03/14 09:53:14;;;;;;;0.90;0.60;;;19.10;20.50;;;;;;5117150;28;20180;-54
2021/03/14 09:55:42;;;;;;;0.70;0.50;;;19.10;20.30;;;;;;5116973;28;20524;-54
2021/03/14 09:58:10;;;;;;;0.60;0.50;;;19.20;20.40;;;;;;5117154;28;20157;-55
2021/03/14 10:00:36;;;;;;;1.17;0.70;;;19.20;20.20;;;;;;5116385;28;20157;-54
2021/03/14 10:03:05;;;;;;;1.83;0.90;;;19.20;20.30;;;;;;5097309;28;20291;-54
2021/03/14 10:05:41;;;;;;;0.77;0.50;;;19.20;20.60;;;;;;5116804;28;20373;-53
2021/03/14 10:08:09;;;;;;;4.18;1.23;;;19.10;20.90;;;;;;5117211;28;20157;-53
2021/03/14 10:10:36;;;;;;;1.95;0.98;;;19.10;21.10;;;;;;5117080;28;20214;-52
2021/03/14 10:13:07;;;;;;;1.75;0.98;;;19.10;21.00;;;;;;5116751;28;20149;-52
2021/03/14 10:15:34;;;;;;;1.95;1.17;;;19.10;20.90;;;;;;5116348;28;20635;-53
2021/03/14 10:18:02;;;;;;;1.38;0.80;;;19.10;20.90;;;;;;5116719;28;20165;-53
2021/03/14 10:20:30;;;;;;;2.85;0.70;;;19.00;20.70;;;;;;5116433;28;20269;-52
2021/03/14 10:23:08;;;;;;;5.32;0.82;;;19.00;20.70;;;;;;5116340;28;20185;-53
2021/03/14 10:25:36;;;;;;;3.55;0.93;;;19.00;20.60;;;;;;5116463;28;20600;-54
2021/03/14 10:28:06;;;;;;;0.93;0.70;;;19.00;20.60;;;;;;5116604;28;20232;-53
2021/03/14 10:30:32;;;;;;;1.10;0.90;;;19.00;20.60;;;;;;5116057;28;20155;-53
2021/03/14 10:32:58;;;;;;;1.20;0.80;;;19.00;20.70;;;;;;5116461;28;20161;-54
2021/03/14 10:35:24;;;;;;;1.20;0.70;;;19.00;20.70;;;;;;5116372;28;20448;-54
2021/03/14 10:37:50;;;;;;;1.77;1.13;;;18.90;20.70;;;;;;5116387;28;20194;-53
2021/03/14 10:40:20;;;;;;;1.83;0.97;;;18.90;20.70;;;;;;5116595;28;20214;-54
2021/03/14 10:42:48;;;;;;;2.15;1.00;;;18.90;20.70;;;;;;5116251;28;20271;-53
2021/03/14 10:45:23;;;;;;;0.98;0.77;;;18.90;20.70;;;;;;5115678;28;20161;-53
2021/03/14 10:48:04;;;;;;;2.75;0.52;;;18.90;20.70;;;;;;5116194;28;20141;-53
2021/03/14 10:50:33;;;;;;;4.50;1.17;;;18.90;20.70;;;;;;5116027;28;20153;-52
2021/03/14 10:53:14;;;;;;;2.80;1.15;;;18.90;20.70;;;;;;5097989;28;20176;-53
2021/03/14 10:55:41;;;;;;;1.25;0.98;;;18.90;20.70;;;;;;5115836;28;20153;-52
2021/03/14 10:58:18;;;;;;;1.10;0.75;;;18.90;20.80;;;;;;5115930;28;20508;-53
2021/03/14 11:00:47;;;;;;;1.70;1.00;;;18.90;20.80;;;;;;5115163;28;20189;-53
2021/03/14 11:03:28;;;;;;;1.23;0.93;;;19.00;20.70;;;;;;5097537;28;20196;-52
2021/03/14 11:06:12;;;;;;;1.25;0.80;;;19.00;20.60;;;;;;5115656;28;20143;-53
2021/03/14 11:08:57;;;;;;;1.65;1.30;;;19.10;20.50;;;;;;5115588;28;20292;-53
2021/03/14 11:11:43;;;;;;;1.60;0.90;;;19.10;20.40;;;;;;5115884;28;20149;-53
2021/03/14 11:14:27;;;;;;;0.80;0.70;;;19.10;20.40;;;;;;5114767;28;20676;-53
2021/03/14 11:17:08;;;;;;;1.00;0.75;;;19.10;20.40;;;;;;5115613;28;20177;-53
2021/03/14 11:19:35;;;;;;;0.85;0.60;;;19.10;20.30;;;;;;5115424;28;20145;-53
2021/03/14 11:22:05;;;;;;;1.73;0.80;;;19.10;20.40;;;;;;5114991;28;20248;-53
2021/03/14 11:24:31;;;;;;;2.28;0.77;;;19.10;20.40;;;;;;5115141;28;20157;-53
2021/03/14 11:26:56;;;;;;;1.40;0.98;;;19.10;20.40;;;;;;5115335;28;20153;-52
2021/03/14 11:29:22;;;;;;;1.60;0.97;;;19.10;20.40;;;;;;5114761;28;20171;-52
2021/03/14 11:31:48;;;;;;;4.30;1.40;;;19.10;20.40;;;;;;5115286;28;20157;-53
2021/03/14 11:34:20;;;;;;;0.90;0.80;;;19.10;20.40;;;;;;5115123;28;20467;-53
2021/03/14 11:36:47;;;;;;;2.03;0.82;;;19.10;20.30;;;;;;5115208;28;20244;-52
2021/03/14 11:39:12;;;;;;;1.40;0.98;;;19.20;20.30;;;;;;5114967;28;20161;-53
2021/03/14 11:41:40;;;;;;;1.40;0.90;;;19.20;20.30;;;;;;5115004;28;20596;-54
2021/03/14 11:44:07;;;;;;;2.03;1.05;;;19.20;20.30;;;;;;5114405;28;20153;-53
2021/03/14 11:46:33;;;;;;;1.48;1.05;;;19.20;20.30;;;;;;5114923;28;20164;-52
2021/03/14 11:48:59;;;;;;;1.63;0.85;;;19.20;20.30;;;;;;5114779;28;20516;-52
2021/03/14 11:51:25;;;;;;;1.43;0.93;;;19.20;20.30;;;;;;5115016;28;20612;-53
2021/03/14 11:53:51;;;;;;;1.25;1.13;;;19.20;20.30;;;;;;5114739;28;20874;-53
2021/03/14 11:56:19;;;;;;;1.17;1.00;;;19.20;20.30;;;;;;5114618;28;20183;-53
2021/03/14 11:58:44;;;;;;;1.50;1.40;;;19.10;20.30;;;;;;5114490;28;20604;-53
2021/03/14 12:01:10;;;;;;;1.53;1.17;;;19.20;20.30;;;;;;5113747;28;20168;-52
2021/03/14 12:03:36;;;;;;;3.37;1.80;;;19.20;20.30;;;;;;5114619;28;20189;-52
2021/03/14 12:06:02;;;;;;;1.80;1.53;;;19.10;20.30;;;;;;5114853;28;20505;-53
2021/03/14 12:08:28;;;;;;;2.50;1.20;;;19.10;20.30;;;;;;5114459;28;20248;-53
2021/03/14 12:10:53;;;;;;;1.50;1.40;;;19.10;20.30;;;;;;5114482;28;20252;-53
2021/03/14 12:13:19;;;;;;;2.10;1.50;;;19.10;20.30;;;;;;5114586;28;20149;-53
2021/03/14 12:15:45;;;;;;;2.70;1.67;;;19.10;20.30;;;;;;5113884;28;20157;-53
2021/03/14 12:18:11;;;;;;;2.60;1.83;;;19.10;20.30;;;;;;5114678;28;20239;-53
2021/03/14 12:20:38;;;;;;;2.33;1.73;;;19.10;20.30;;;;;;5114117;28;20274;-52
2021/03/14 12:23:04;;;;;;;2.95;1.38;;;19.10;20.30;;;;;;5114404;28;20184;-52
2021/03/14 12:25:29;;;;;;;2.80;1.80;;;19.10;20.40;;;;;;5114377;28;20157;-53
2021/03/14 12:27:58;;;;;;;2.60;1.70;;;19.10;20.40;;;;;;5113605;28;20403;-53
2021/03/14 12:30:26;;;;;;;4.43;2.10;;;19.00;20.40;;;;;;5113711;28;20153;-54
2021/03/14 12:32:54;;;;;;;4.47;2.28;;;19.00;20.40;;;;;;5114187;28;20160;-53
2021/03/14 12:35:20;;;;;;;4.32;2.30;;;19.00;20.40;;;;;;5114050;28;20190;-53
2021/03/14 12:37:46;;;;;;;2.47;2.17;;;19.00;20.40;;;;;;5114140;28;20168;-52
2021/03/14 12:40:12;;;;;;;5.53;2.20;;;19.00;20.40;;;;;;5114105;28;20157;-53
2021/03/14 12:42:40;;;;;;;3.13;2.00;;;19.00;20.40;;;;;;5114036;28;20192;-52
2021/03/14 12:45:09;;;;;;;3.55;2.05;;;19.00;20.50;;;;;;5113650;28;20500;-52
2021/03/14 12:47:34;;;;;;;4.40;2.42;;;19.00;20.50;;;;;;5114089;28;20157;-53
2021/03/14 12:50:01;;;;;;;3.07;2.00;;;18.90;20.50;;;;;;5113923;28;20241;-53
2021/03/14 12:52:29;;;;;;;3.63;2.53;;;18.90;20.50;;;;;;5113783;28;20623;-52
2021/03/14 12:54:57;;;;;;;1.83;1.70;;;18.90;20.60;;;;;;5113894;28;20609;-52
2021/03/14 12:57:23;;;;;;;4.28;2.72;;;18.90;20.50;;;;;;5095679;28;20260;-53
2021/03/14 12:59:48;;;;;;;2.40;2.20;;;18.90;20.60;;;;;;5113387;28;20192;-53